Time;durP1;ratioP1;P1;durP2;ratioP2;P2;SDS_P1;SDS_P2;PMS_P1;PMS_P2;Temp;Humidity;BMP_temperature;BMP_pressure;BME280_temperature;BME280_humidity;BME280_pressure;Samples;Min_cycle;Max_cycle;Signal;HPM_P1;HPM_P2
2023/09/11 00:00:59;;;;;;;;;;;;;;;22.00;58.91;101136.38;4975988;28;6325;-67
2023/09/11 00:03:26;;;;;;;;;;;;;;;22.00;58.91;101139.28;4975733;28;2246;-67
2023/09/11 00:05:53;;;;;;;;;;;;;;;22.00;59.01;101136.38;4978024;28;2006;-66
2023/09/11 00:08:30;;;;;;;;;;;;;;;21.99;58.93;101134.16;4972386;28;2174;-67
2023/09/11 00:10:57;;;;;;;;;;;;;;;21.98;58.62;101127.63;4976433;28;2090;-68
2023/09/11 00:13:23;;;;;;;;;;;;;;;21.98;58.86;101130.53;4977982;28;2205;-67
2023/09/11 00:15:49;;;;;;;;;;;;;;;21.98;58.85;101133.41;4976595;28;2455;-67
2023/09/11 00:18:16;;;;;;;;;;;;;;;21.97;58.55;101120.41;4978459;28;2160;-67
2023/09/11 00:20:42;;;;;;;;;;;;;;;21.96;58.50;101122.53;4970956;28;2200;-67
2023/09/11 00:23:09;;;;;;;;;;;;;;;21.95;58.71;101123.94;4976561;28;2280;-67
2023/09/11 00:25:35;;;;;;;;;;;;;;;21.95;58.69;101117.44;4977111;28;2233;-68
2023/09/11 00:28:02;;;;;;;;;;;;;;;21.93;58.68;101114.44;4987129;28;3125;-67
2023/09/11 00:30:28;;;;;;;;;;;;;;;21.92;58.59;101107.94;4976836;28;6173;-68
2023/09/11 00:32:55;;;;;;;;;;;;;;;21.92;58.54;101112.94;4976017;28;2450;-68
2023/09/11 00:35:21;;;;;;;;;;;;;;;21.91;58.15;101112.22;4975998;28;2493;-68
2023/09/11 00:37:48;;;;;;;;;;;;;;;21.91;58.47;101111.47;4977100;28;2070;-67
2023/09/11 00:40:14;;;;;;;;;;;;;;;21.89;58.33;101108.50;4972601;28;2222;-67
2023/09/11 00:42:41;;;;;;;;;;;;;;;21.89;58.39;101102.72;4975185;28;2299;-67
2023/09/11 00:45:07;;;;;;;;;;;;;;;21.89;58.29;101105.63;4976708;28;2144;-67
2023/09/11 00:47:33;;;;;;;;;;;;;;;21.88;57.93;101099.13;4975471;28;2187;-67
2023/09/11 00:50:00;;;;;;;;;;;;;;;21.88;58.00;101107.03;4977877;28;2240;-67
2023/09/11 00:52:27;;;;;;;;;;;;;;;21.87;58.15;101094.72;4974253;28;2369;-67
2023/09/11 00:54:53;;;;;;;;;;;;;;;21.88;58.13;101098.38;4981417;28;2342;-66
2023/09/11 00:57:20;;;;;;;;;;;;;;;21.88;57.78;101099.13;4977239;28;2148;-67
2023/09/11 00:59:48;;;;;;;;;;;;;;;21.87;57.74;101094.00;4975787;28;2371;-66
2023/09/11 01:02:14;;;;;;;;;;;;;;;21.84;57.99;101092.44;4972873;28;6267;-67
2023/09/11 01:04:41;;;;;;;;;;;;;;;21.83;57.65;101088.81;4975629;28;2224;-67
2023/09/11 01:07:08;;;;;;;;;;;;;;;21.84;57.84;101083.78;4974026;28;2082;-67
2023/09/11 01:09:34;;;;;;;;;;;;;;;21.82;57.53;101093.06;4978103;28;2383;-67
2023/09/11 01:12:01;;;;;;;;;;;;;;;21.82;57.69;101087.31;4976900;28;2246;-67
2023/09/11 01:14:27;;;;;;;;;;;;;;;21.82;57.95;101086.56;4977368;28;2243;-67
2023/09/11 01:17:13;;;;;;;;;;;;;;;21.80;57.85;101087.22;4975456;28;2260;-67
2023/09/11 01:19:54;;;;;;;;;;;;;;;21.80;57.53;101083.59;4976527;28;2179;-67
2023/09/11 01:22:39;;;;;;;;;;;;;;;21.79;57.69;101082.84;4977486;28;2125;-67
2023/09/11 01:25:07;;;;;;;;;;;;;;;21.80;57.67;101077.81;4973983;28;2206;-67
2023/09/11 01:27:43;;;;;;;;;;;;;;;21.79;57.52;101082.13;4975825;28;2161;-67
2023/09/11 01:30:10;;;;;;;;;;;;;;;21.77;57.64;101076.25;4969883;28;6314;-67
2023/09/11 01:32:36;;;;;;;;;;;;;;;21.78;57.66;101069.09;4974994;28;2262;-67
2023/09/11 01:35:03;;;;;;;;;;;;;;;21.77;57.62;101076.25;4990244;28;2109;-66
2023/09/11 01:37:31;;;;;;;;;;;;;;;21.75;57.43;101071.88;4970674;28;2351;-66
2023/09/11 01:39:57;;;;;;;;;;;;;;;21.74;57.46;101070.41;4972997;28;2247;-66
2023/09/11 01:42:26;;;;;;;;;;;;;;;21.73;57.43;101074.66;4974760;28;2196;-66
2023/09/11 01:44:52;;;;;;;;;;;;;;;21.73;57.36;101065.28;4975017;28;2476;-66
2023/09/11 01:47:20;;;;;;;;;;;;;;;21.73;57.35;101062.41;4968398;28;2188;-66
2023/09/11 01:49:47;;;;;;;;;;;;;;;21.73;57.34;101050.88;4976141;28;2232;-66
2023/09/11 01:52:13;;;;;;;;;;;;;;;21.72;57.15;101055.91;4973863;28;2263;-66
2023/09/11 01:54:40;;;;;;;;;;;;;;;21.71;57.30;101048.63;4990175;28;2425;-66
2023/09/11 01:57:07;;;;;;;;;;;;;;;21.70;57.44;101052.94;4976300;28;1822;-67
2023/09/11 01:59:33;;;;;;;;;;;;;;;21.70;57.22;101047.16;4973775;28;2326;-67
2023/09/11 02:01:59;;;;;;;;;;;;;;;21.70;57.28;101041.41;4988368;28;6500;-66
2023/09/11 02:04:26;;;;;;;;;;;;;;;21.69;57.02;101045.69;4973895;28;2199;-66
2023/09/11 02:06:52;;;;;;;;;;;;;;;21.67;57.22;101042.72;4976363;28;2157;-67
2023/09/11 02:09:19;;;;;;;;;;;;;;;21.66;57.35;101046.97;4970781;28;2299;-67
2023/09/11 02:11:45;;;;;;;;;;;;;;;21.66;56.86;101052.75;4975499;28;2127;-66
2023/09/11 02:14:12;;;;;;;;;;;;;;;21.67;57.34;101047.72;4989801;28;2136;-66
2023/09/11 02:16:38;;;;;;;;;;;;;;;21.66;57.13;101052.75;4975154;28;2370;-66
2023/09/11 02:19:05;;;;;;;;;;;;;;;21.65;56.94;101039.75;4972523;28;2738;-66
2023/09/11 02:21:31;;;;;;;;;;;;;;;21.64;57.13;101049.78;4976789;28;2152;-67
2023/09/11 02:23:58;;;;;;;;;;;;;;;21.62;56.98;101041.03;4973513;28;2194;-66
2023/09/11 02:26:25;;;;;;;;;;;;;;;21.62;56.81;101046.78;4989851;28;2223;-66
2023/09/11 02:28:51;;;;;;;;;;;;;;;21.61;56.78;101045.31;4988206;28;2226;-66
2023/09/11 02:31:18;;;;;;;;;;;;;;;21.59;56.89;101042.34;4973925;28;6158;-67
2023/09/11 02:33:44;;;;;;;;;;;;;;;21.61;56.79;101051.09;4972863;28;2273;-66
2023/09/11 02:36:11;;;;;;;;;;;;;;;21.61;56.88;101051.09;4974586;28;2305;-67
2023/09/11 02:38:37;;;;;;;;;;;;;;;21.60;56.73;101049.63;4973524;28;2212;-67
2023/09/11 02:41:04;;;;;;;;;;;;;;;21.58;56.64;101046.63;4990443;28;2201;-68
2023/09/11 02:43:35;;;;;;;;;;;;;;;21.58;56.64;101046.63;4990800;28;2250;-67
2023/09/11 02:46:02;;;;;;;;;;;;;;;21.58;56.62;101049.53;4973485;28;2196;-67
2023/09/11 02:48:28;;;;;;;;;;;;;;;21.55;56.76;101045.03;4983015;28;2268;-67
2023/09/11 02:50:55;;;;;;;;;;;;;;;21.56;56.66;101054.47;4975922;28;2611;-67
2023/09/11 02:53:21;;;;;;;;;;;;;;;21.56;56.23;101046.53;4975856;28;2152;-67
2023/09/11 02:55:48;;;;;;;;;;;;;;;21.54;56.50;101046.44;4975095;28;2132;-67
2023/09/11 02:58:15;;;;;;;;;;;;;;;21.54;56.33;101049.34;4973833;28;2331;-67
2023/09/11 03:00:41;;;;;;;;;;;;;;;21.53;56.26;101044.94;4973873;28;6139;-67
2023/09/11 03:03:09;;;;;;;;;;;;;;;21.52;56.35;101043.47;4974434;28;2189;-67
2023/09/11 03:05:36;;;;;;;;;;;;;;;21.51;56.44;101047.75;4973194;28;2185;-67
2023/09/11 03:08:03;;;;;;;;;;;;;;;21.52;56.26;101047.09;4974280;28;2416;-67
2023/09/11 03:10:29;;;;;;;;;;;;;;;21.51;56.34;101053.53;4974629;28;2195;-67
2023/09/11 03:12:58;;;;;;;;;;;;;;;21.52;56.49;101055.00;4978717;28;2208;-67
2023/09/11 03:15:27;;;;;;;;;;;;;;;21.51;56.44;101047.75;4976091;28;2132;-67
2023/09/11 03:17:55;;;;;;;;;;;;;;;21.50;56.66;101043.38;4986985;28;2176;-67
2023/09/11 03:20:22;;;;;;;;;;;;;;;21.51;56.30;101042.00;4984492;28;2207;-67
2023/09/11 03:22:48;;;;;;;;;;;;;;;21.50;56.44;101049.16;4974631;28;2157;-67
2023/09/11 03:25:15;;;;;;;;;;;;;;;21.49;56.56;101044.78;4975074;28;2105;-67
2023/09/11 03:27:42;;;;;;;;;;;;;;;21.50;56.52;101052.03;4971425;28;2306;-67
2023/09/11 03:30:08;;;;;;;;;;;;;;;21.48;56.62;101037.53;4990123;28;6310;-67
2023/09/11 03:32:35;;;;;;;;;;;;;;;21.48;56.71;101049.06;4989376;28;2602;-67
2023/09/11 03:35:02;;;;;;;;;;;;;;;21.47;56.80;101048.31;4988123;28;2542;-67
2023/09/11 03:37:29;;;;;;;;;;;;;;;21.47;56.56;101038.94;4973401;28;2404;-67
2023/09/11 03:39:57;;;;;;;;;;;;;;;21.45;56.57;101039.56;4976806;28;2279;-67
2023/09/11 03:42:23;;;;;;;;;;;;;;;21.43;56.88;101033.00;4976511;28;2205;-67
2023/09/11 03:44:50;;;;;;;;;;;;;;;21.43;56.71;101039.50;4977679;28;2081;-67
2023/09/11 03:47:16;;;;;;;;;;;;;;;21.42;56.62;101034.41;4991601;28;2222;-67
2023/09/11 03:49:43;;;;;;;;;;;;;;;21.43;56.69;101033.00;4975106;28;2168;-67
2023/09/11 03:52:09;;;;;;;;;;;;;;;21.42;56.66;101031.50;4986825;28;2223;-67
2023/09/11 03:54:36;;;;;;;;;;;;;;;21.41;56.50;101030.75;4976015;28;2197;-67
2023/09/11 03:57:02;;;;;;;;;;;;;;;21.39;56.39;101035.66;4978734;28;2400;-67
2023/09/11 03:59:29;;;;;;;;;;;;;;;21.40;56.38;101040.03;4977134;28;2191;-67
2023/09/11 04:01:56;;;;;;;;;;;;;;;21.39;56.11;101029.88;4972082;28;6186;-67
2023/09/11 04:04:22;;;;;;;;;;;;;;;21.38;56.45;101034.91;4972483;28;2201;-67
2023/09/11 04:06:49;;;;;;;;;;;;;;;21.36;56.35;101031.94;4992399;28;2204;-67
2023/09/11 04:09:15;;;;;;;;;;;;;;;21.34;56.39;101023.94;4971725;28;2391;-67
2023/09/11 04:11:42;;;;;;;;;;;;;;;21.37;56.35;101026.91;4977258;28;2243;-67
2023/09/11 04:14:08;;;;;;;;;;;;;;;21.33;55.95;101019.59;4977203;28;2097;-67
2023/09/11 04:16:34;;;;;;;;;;;;;;;21.34;56.23;101023.94;4992221;28;2295;-67
2023/09/11 04:19:01;;;;;;;;;;;;;;;21.33;55.87;101027.50;4974050;28;2424;-67
2023/09/11 04:21:27;;;;;;;;;;;;;;;21.33;55.82;101022.47;4981539;28;2902;-67
2023/09/11 04:23:54;;;;;;;;;;;;;;;21.12;56.46;101032.31;4989141;28;2313;-68
2023/09/11 04:26:20;;;;;;;;;;;;;;;20.49;57.47;101024.31;4973463;28;2406;-68
2023/09/11 04:28:47;;;;;;;;;;;;;;;20.30;58.01;101021.94;4976976;28;2440;-64
2023/09/11 04:31:13;;;;;;;;;;;;;;;20.18;58.27;101021.31;4988397;28;6374;-64
2023/09/11 04:33:40;;;;;;;;;;;;;;;19.98;58.36;101015.31;4982061;28;2496;-64
2023/09/11 04:36:06;;;;;;;;;;;;;;;19.59;59.34;101016.94;4974005;28;2376;-67
2023/09/11 04:38:33;;;;;;;;;;;;;;;19.84;58.77;101018.22;4992374;28;2211;-66
2023/09/11 04:40:59;;;;;;;;;;;;;;;20.21;57.92;101012.16;4977408;28;2154;-66
2023/09/11 04:43:28;;;;;;;;;;;;;;;20.50;57.29;101017.19;4976928;28;1639;-66
2023/09/11 04:45:54;;;;;;;;;;;;;;;20.66;56.89;101019.34;4974690;28;1911;-63
2023/09/11 04:48:21;;;;;;;;;;;;;;;20.73;56.74;101026.16;4977818;28;1728;-76
2023/09/11 04:50:48;;;;;;;;;;;;;;;20.75;56.42;101024.09;4978087;28;1649;-75
2023/09/11 04:53:14;;;;;;;;;;;;;;;20.78;56.76;101017.06;4993188;28;1796;-75
2023/09/11 04:55:41;;;;;;;;;;;;;;;20.79;56.75;101020.69;4992850;28;1836;-75
2023/09/11 04:58:07;;;;;;;;;;;;;;;20.79;56.62;101020.69;4984271;28;2427;-76
2023/09/11 05:00:34;;;;;;;;;;;;;;;20.80;56.51;101020.03;4979424;28;6301;-76
2023/09/11 05:03:00;;;;;;;;;;;;;;;20.83;56.69;101018.75;4976928;28;1585;-75
2023/09/11 05:05:27;;;;;;;;;;;;;;;20.84;56.52;101025.97;4977662;28;1915;-75
2023/09/11 05:07:54;;;;;;;;;;;;;;;20.85;56.55;101020.97;4993803;28;1676;-76
2023/09/11 05:10:21;;;;;;;;;;;;;;;20.87;56.91;101021.81;4976983;28;1843;-76
2023/09/11 05:12:47;;;;;;;;;;;;;;;20.85;56.68;101024.59;4978018;28;1573;-76
2023/09/11 05:15:14;;;;;;;;;;;;;;;20.87;57.15;101016.06;4989897;28;1848;-77
2023/09/11 05:17:40;;;;;;;;;;;;;;;20.89;56.97;101018.28;4977524;28;1617;-76
2023/09/11 05:20:07;;;;;;;;;;;;;;;20.90;56.79;101020.50;4993434;28;1808;-76
2023/09/11 05:22:33;;;;;;;;;;;;;;;20.90;57.22;101023.38;4993561;28;1796;-76
2023/09/11 05:25:00;;;;;;;;;;;;;;;20.91;57.05;101030.66;4979378;28;1993;-76
2023/09/11 05:27:28;;;;;;;;;;;;;;;20.90;57.07;101023.38;4977576;28;1784;-76
2023/09/11 05:29:54;;;;;;;;;;;;;;;20.91;57.36;101027.78;4978833;28;1632;-76
2023/09/11 05:32:23;;;;;;;;;;;;;;;20.93;57.32;101024.22;4977231;28;6000;-76
2023/09/11 05:34:49;;;;;;;;;;;;;;;20.95;57.33;101015.69;4977846;28;1636;-76
2023/09/11 05:37:16;;;;;;;;;;;;;;;20.93;57.44;101030.72;4979959;28;1625;-76
2023/09/11 05:39:43;;;;;;;;;;;;;;;20.92;57.66;101026.38;4977510;28;1989;-76
2023/09/11 05:42:10;;;;;;;;;;;;;;;20.94;57.65;101022.84;4978913;28;1617;-75
2023/09/11 05:44:37;;;;;;;;;;;;;;;20.97;57.85;101029.44;4978522;28;1779;-76
2023/09/11 05:47:04;;;;;;;;;;;;;;;20.97;57.83;101026.56;4976203;28;1966;-76
2023/09/11 05:49:30;;;;;;;;;;;;;;;20.97;58.04;101027.31;4986782;28;1650;-76
2023/09/11 05:51:57;;;;;;;;;;;;;;;20.99;58.07;101024.53;4978065;28;1736;-76
2023/09/11 05:54:23;;;;;;;;;;;;;;;21.00;58.37;101025.25;4977394;28;1726;-76
2023/09/11 05:56:50;;;;;;;;;;;;;;;21.01;58.42;101021.00;4977577;28;2155;-75
2023/09/11 05:59:20;;;;;;;;;;;;;;;21.01;58.57;101018.84;4993788;28;1720;-75
2023/09/11 06:01:46;;;;;;;;;;;;;;;21.03;58.88;101023.97;4978114;28;6195;-76
2023/09/11 06:04:12;;;;;;;;;;;;;;;21.03;59.13;101018.94;4976691;28;2164;-76
2023/09/11 06:06:39;;;;;;;;;;;;;;;21.06;59.36;101017.66;4977244;28;2488;-74
2023/09/11 06:09:09;;;;;;;;;;;;;;;21.07;59.58;101024.13;4975198;28;2325;-76
2023/09/11 06:11:35;;;;;;;;;;;;;;;21.09;59.42;101027.13;4976127;28;2278;-75
2023/09/11 06:14:03;;;;;;;;;;;;;;;21.10;59.67;101022.84;4976247;28;2380;-76
2023/09/11 06:16:29;;;;;;;;;;;;;;;21.12;59.78;101023.69;4975749;28;2173;-75
2023/09/11 06:18:57;;;;;;;;;;;;;;;21.15;59.92;101029.53;4980808;28;2065;-75
2023/09/11 06:21:23;;;;;;;;;;;;;;;21.16;60.10;101031.03;4962411;28;2407;-75
2023/09/11 06:23:50;;;;;;;;;;;;;;;21.17;60.35;101030.38;4976398;28;2236;-76
2023/09/11 06:26:16;;;;;;;;;;;;;;;21.18;60.52;101031.84;4977453;28;1918;-76
2023/09/11 06:28:43;;;;;;;;;;;;;;;21.20;60.66;101031.22;4992498;28;1917;-76
2023/09/11 06:31:09;;;;;;;;;;;;;;;21.20;60.72;101023.31;4975873;28;6117;-76
2023/09/11 06:33:36;;;;;;;;;;;;;;;21.21;60.88;101021.94;4976832;28;2690;-75
2023/09/11 06:36:05;;;;;;;;;;;;;;;21.21;60.99;101027.69;4976131;28;2172;-76
2023/09/11 06:38:32;;;;;;;;;;;;;;;21.23;60.94;101024.88;4978681;28;2176;-76
2023/09/11 06:40:58;;;;;;;;;;;;;;;21.13;62.39;101021.53;4975071;28;2512;-72
2023/09/11 06:43:25;;;;;;;;;;;;;;;20.51;68.98;101012.91;4975762;28;2422;-71
2023/09/11 06:45:52;;;;;;;;;;;;;;;19.66;74.86;101020.88;4975100;28;2069;-73
2023/09/11 06:48:19;;;;;;;;;;;;;;;20.02;73.65;101016.28;4972646;28;2216;-75
2023/09/11 06:50:48;;;;;;;;;;;;;;;20.45;71.63;101012.59;4974247;28;2366;-69
2023/09/11 06:53:14;;;;;;;;;;;;;;;20.88;69.29;101013.91;4975574;28;2259;-70
2023/09/11 06:55:44;;;;;;;;;;;;;;;21.04;68.58;101014.66;4976251;28;1623;-70
2023/09/11 06:58:10;;;;;;;;;;;;;;;21.17;67.87;101021.75;4976579;28;2499;-69
2023/09/11 07:00:37;;;;;;;;;;;;;;;21.22;67.31;101009.00;4976000;28;6294;-70
2023/09/11 07:03:03;;;;;;;;;;;;;;;21.26;67.61;101012.06;4977796;28;1625;-70
2023/09/11 07:05:30;;;;;;;;;;;;;;;21.30;66.57;101014.38;4979814;28;1953;-70
2023/09/11 07:07:56;;;;;;;;;;;;;;;21.32;66.52;101005.81;4981168;28;1561;-69
2023/09/11 07:10:23;;;;;;;;;;;;;;;21.33;65.90;101013.09;4980730;28;1708;-70
2023/09/11 07:13:06;;;;;;;;;;;;;;;21.37;65.51;101015.41;4980801;28;1660;-69
2023/09/11 07:15:32;;;;;;;;;;;;;;;21.37;65.11;101010.38;4980514;28;1660;-69
2023/09/11 07:18:00;;;;;;;;;;;;;;;21.40;64.50;101014.09;4981041;28;1791;-70
2023/09/11 07:20:26;;;;;;;;;;;;;;;21.41;64.42;101006.97;4995372;28;1828;-70
2023/09/11 07:22:53;;;;;;;;;;;;;;;21.42;64.15;101005.59;4978701;28;1776;-69
2023/09/11 07:25:22;;;;;;;;;;;;;;;21.44;64.10;101008.53;4978883;28;2243;-69
2023/09/11 07:27:49;;;;;;;;;;;;;;;21.47;63.42;101010.13;4978236;28;2195;-69
2023/09/11 07:30:16;;;;;;;;;;;;;;;21.54;63.34;101006.13;4977456;28;6384;-70
2023/09/11 07:32:42;;;;;;;;;;;;;;;21.54;63.08;101012.63;4977718;28;2560;-70
2023/09/11 07:35:09;;;;;;;;;;;;;;;21.55;63.04;101007.59;4980028;28;2192;-70
2023/09/11 07:37:35;;;;;;;;;;;;;;;21.58;62.56;101012.06;4977441;28;2266;-70
2023/09/11 07:40:02;;;;;;;;;;;;;;;21.58;62.54;101012.06;4977769;28;2156;-69
2023/09/11 07:42:28;;;;;;;;;;;;;;;21.60;62.75;101006.38;4978742;28;2536;-70
2023/09/11 07:44:55;;;;;;;;;;;;;;;21.61;62.47;101012.88;4977741;28;2542;-70
2023/09/11 07:47:21;;;;;;;;;;;;;;;21.60;62.39;101014.28;4977155;28;2430;-69
2023/09/11 07:49:48;;;;;;;;;;;;;;;21.61;62.61;101007.84;4976870;28;2139;-70
2023/09/11 07:52:15;;;;;;;;;;;;;;;21.62;62.32;101012.22;4978232;28;1761;-70
2023/09/11 07:54:42;;;;;;;;;;;;;;;21.62;62.02;101014.38;4980642;28;1811;-69
2023/09/11 07:57:08;;;;;;;;;;;;;;;21.64;61.61;101009.44;4981115;28;2100;-70
2023/09/11 07:59:35;;;;;;;;;;;;;;;21.63;62.11;101005.06;4979905;28;1581;-69
2023/09/11 08:02:02;;;;;;;;;;;;;;;21.62;61.66;101006.44;4979307;28;6114;-70
2023/09/11 08:04:28;;;;;;;;;;;;;;;21.65;61.58;101010.19;4981443;28;1846;-69
2023/09/11 08:06:55;;;;;;;;;;;;;;;21.64;61.70;100997.91;4980794;28;1974;-70
2023/09/11 08:09:21;;;;;;;;;;;;;;;21.67;61.47;100999.50;4978831;28;1835;-69
2023/09/11 08:11:49;;;;;;;;;;;;;;;21.67;61.23;100999.50;4978553;28;1733;-70
2023/09/11 08:14:16;;;;;;;;;;;;;;;21.70;61.27;101001.06;4980015;28;1585;-69
2023/09/11 08:16:42;;;;;;;;;;;;;;;21.70;61.36;100995.28;4978634;28;1700;-69
2023/09/11 08:19:10;;;;;;;;;;;;;;;21.72;61.48;100998.25;4977858;28;1581;-69
2023/09/11 08:21:37;;;;;;;;;;;;;;;21.73;61.14;101001.88;4979608;28;1863;-69
2023/09/11 08:24:03;;;;;;;;;;;;;;;21.74;61.31;100995.47;4979739;28;1819;-70
2023/09/11 08:26:30;;;;;;;;;;;;;;;21.77;61.99;101001.31;4979105;28;1918;-68
2023/09/11 08:28:56;;;;;;;;;;;;;;;21.81;61.89;100999.34;4978404;28;1811;-70
2023/09/11 08:31:23;;;;;;;;;;;;;;;21.83;61.73;100995.78;4979670;28;6237;-69
2023/09/11 08:33:54;;;;;;;;;;;;;;;21.82;61.93;100994.31;4978535;28;1712;-69
2023/09/11 08:36:21;;;;;;;;;;;;;;;21.86;62.17;100994.50;4980064;28;1684;-70
2023/09/11 08:38:48;;;;;;;;;;;;;;;21.91;63.30;101005.53;4978006;28;1588;-70
2023/09/11 08:41:14;;;;;;;;;;;;;;;21.88;65.58;100998.22;4977846;28;1724;-68
2023/09/11 08:43:41;;;;;;;;;;;;;;;21.88;65.17;101009.00;4979094;28;1803;-69
2023/09/11 08:46:07;;;;;;;;;;;;;;;21.86;63.76;101003.16;4978180;28;1919;-69
2023/09/11 08:48:34;;;;;;;;;;;;;;;21.89;63.72;100998.94;4994205;28;1793;-69
2023/09/11 08:51:01;;;;;;;;;;;;;;;21.88;63.38;100998.22;4983648;28;1643;-70
2023/09/11 08:53:28;;;;;;;;;;;;;;;21.92;62.53;101003.38;4978446;28;1572;-71
2023/09/11 08:55:54;;;;;;;;;;;;;;;21.96;62.55;101000.69;4982290;28;2086;-70
2023/09/11 08:58:20;;;;;;;;;;;;;;;21.99;62.75;101002.28;4984107;28;1893;-70
2023/09/11 09:00:47;;;;;;;;;;;;;;;21.99;62.41;101002.28;4980884;28;6323;-70
2023/09/11 09:03:13;;;;;;;;;;;;;;;22.01;62.19;101005.22;4977950;28;1733;-71
2023/09/11 09:05:40;;;;;;;;;;;;;;;22.06;62.32;101006.88;4979781;28;1791;-70
2023/09/11 09:08:07;;;;;;;;;;;;;;;22.03;61.79;101004.56;4978261;28;2005;-70
2023/09/11 09:10:33;;;;;;;;;;;;;;;22.00;61.72;100997.97;4992949;28;1808;-70
2023/09/11 09:13:00;;;;;;;;;;;;;;;22.00;61.58;100991.47;4976169;28;1573;-69
2023/09/11 09:15:26;;;;;;;;;;;;;;;22.01;61.74;101002.34;4978297;28;1831;-70
2023/09/11 09:17:53;;;;;;;;;;;;;;;22.02;61.79;100992.31;4982878;28;1806;-69
2023/09/11 09:20:20;;;;;;;;;;;;;;;21.99;61.19;100993.63;4977941;28;1625;-70
2023/09/11 09:22:51;;;;;;;;;;;;;;;22.06;61.16;100989.59;4980746;28;1603;-70
2023/09/11 09:25:17;;;;;;;;;;;;;;;22.03;61.30;100993.78;4977341;28;1656;-70
2023/09/11 09:27:43;;;;;;;;;;;;;;;22.00;61.22;100977.06;4977246;28;1981;-71
2023/09/11 09:30:19;;;;;;;;;;;;;;;21.99;61.44;100984.22;4977141;28;6173;-70
2023/09/11 09:32:47;;;;;;;;;;;;;;;21.98;61.98;100988.50;4978187;28;1640;-70
2023/09/11 09:35:13;;;;;;;;;;;;;;;21.98;61.79;100974.81;4978742;28;1839;-70
2023/09/11 09:37:40;;;;;;;;;;;;;;;21.94;61.54;100981.19;4976936;28;1683;-70
2023/09/11 09:40:06;;;;;;;;;;;;;;;21.96;61.77;100972.59;4977766;28;1950;-71
2023/09/11 09:42:42;;;;;;;;;;;;;;;21.96;61.47;100966.09;4981891;28;1865;-69
2023/09/11 09:45:08;;;;;;;;;;;;;;;21.95;61.35;100962.47;4980966;28;1616;-70
2023/09/11 09:47:34;;;;;;;;;;;;;;;21.98;60.21;100960.41;4980829;28;1960;-72
2023/09/11 09:50:02;;;;;;;;;;;;;;;22.02;60.02;100954.81;4976008;28;1807;-71
2023/09/11 09:52:29;;;;;;;;;;;;;;;22.02;60.04;100957.69;4977123;28;1764;-71
2023/09/11 09:54:56;;;;;;;;;;;;;;;22.08;59.61;100946.41;4978737;28;1573;-70
2023/09/11 09:57:24;;;;;;;;;;;;;;;22.11;59.54;100950.84;4973570;28;2191;-74
2023/09/11 09:59:52;;;;;;;;;;;;;;;22.17;60.08;100951.13;4978179;28;1648;-69
2023/09/11 10:02:22;;;;;;;;;;;;;;;22.16;59.75;100952.50;4976686;28;6245;-69
2023/09/11 10:04:53;;;;;;;;;;;;;;;22.10;59.96;100937.81;4975282;28;1561;-69
2023/09/11 10:07:39;;;;;;;;;;;;;;;22.11;60.12;100933.56;4981587;28;2084;-70
2023/09/11 10:10:21;;;;;;;;;;;;;;;22.08;60.17;100926.22;4975786;28;1569;-71
2023/09/11 10:12:54;;;;;;;;;;;;;;;22.10;59.75;100937.81;4976694;28;1871;-70
2023/09/11 10:15:21;;;;;;;;;;;;;;;22.11;59.92;100932.81;4976696;28;1742;-70
2023/09/11 10:17:49;;;;;;;;;;;;;;;22.12;59.84;100923.50;4977297;28;1799;-70
2023/09/11 10:20:16;;;;;;;;;;;;;;;22.11;60.08;100919.13;4975922;28;1788;-71
2023/09/11 10:22:42;;;;;;;;;;;;;;;22.11;59.93;100916.25;4975099;28;1844;-71
2023/09/11 10:25:09;;;;;;;;;;;;;;;22.10;59.69;100920.53;4977824;28;1807;-72
2023/09/11 10:27:35;;;;;;;;;;;;;;;22.13;59.77;100916.34;4991492;28;1918;-72
2023/09/11 10:30:04;;;;;;;;;;;;;;;22.24;59.15;100916.75;4977338;28;2117;-72
2023/09/11 10:32:37;;;;;;;;;;;;;;;22.32;58.59;100909.16;4988381;28;5999;-71
2023/09/11 10:35:04;;;;;;;;;;;;;;;22.27;58.77;100913.31;4974410;28;2303;-70
2023/09/11 10:37:31;;;;;;;;;;;;;;;22.21;59.02;100912.28;4981704;28;2466;-71
2023/09/11 10:39:57;;;;;;;;;;;;;;;22.17;59.59;100907.09;4975955;28;1568;-71
2023/09/11 10:42:24;;;;;;;;;;;;;;;22.14;59.82;100903.38;4977015;28;2175;-71
2023/09/11 10:44:53;;;;;;;;;;;;;;;22.13;60.03;100901.91;4973678;28;1700;-71
2023/09/11 10:47:19;;;;;;;;;;;;;;;22.13;60.04;100904.81;4975376;28;1922;-71
2023/09/11 10:49:49;;;;;;;;;;;;;;;22.12;60.00;100906.19;4975005;28;2169;-72
2023/09/11 10:52:15;;;;;;;;;;;;;;;22.12;60.19;100886.00;4977332;28;2001;-66
2023/09/11 10:54:42;;;;;;;;;;;;;;;22.12;60.18;100906.19;4976776;28;1592;-70
2023/09/11 10:57:08;;;;;;;;;;;;;;;22.13;60.16;100892.53;4980601;28;2082;-70
2023/09/11 10:59:34;;;;;;;;;;;;;;;22.13;60.05;100890.38;4976286;28;2219;-70
2023/09/11 11:02:01;;;;;;;;;;;;;;;22.13;60.15;100878.84;4976162;28;6261;-70
2023/09/11 11:04:30;;;;;;;;;;;;;;;22.13;60.15;100881.00;4980019;28;2204;-68
2023/09/11 11:06:58;;;;;;;;;;;;;;;22.19;59.77;100884.09;4976556;28;2046;-68
2023/09/11 11:09:25;;;;;;;;;;;;;;;22.27;59.38;100886.59;4974991;28;2714;-70
2023/09/11 11:11:58;;;;;;;;;;;;;;;22.25;59.43;100877.88;4977034;28;2180;-71
2023/09/11 11:14:24;;;;;;;;;;;;;;;22.27;59.62;100870.03;4980063;28;2358;-70
2023/09/11 11:17:03;;;;;;;;;;;;;;;22.26;59.44;100867.81;4976503;28;2330;-70
2023/09/11 11:19:35;;;;;;;;;;;;;;;22.26;59.61;100877.19;4974333;28;2413;-71
2023/09/11 11:22:03;;;;;;;;;;;;;;;22.25;59.81;100872.84;4977290;28;2128;-69
2023/09/11 11:24:31;;;;;;;;;;;;;;;22.26;59.59;100874.31;4975652;28;2610;-70
2023/09/11 11:26:57;;;;;;;;;;;;;;;22.27;59.77;100869.28;4975942;28;2532;-70
2023/09/11 11:29:24;;;;;;;;;;;;;;;22.25;59.86;100866.34;4980839;28;1678;-70
2023/09/11 11:31:53;;;;;;;;;;;;;;;22.25;60.37;100872.84;4975914;28;6252;-70
2023/09/11 11:34:22;;;;;;;;;;;;;;;22.24;60.09;100856.19;4975050;28;1720;-70
2023/09/11 11:36:49;;;;;;;;;;;;;;;22.24;60.27;100867.72;4975491;28;1628;-70
2023/09/11 11:39:15;;;;;;;;;;;;;;;22.23;60.41;100863.38;4981150;28;1797;-70
2023/09/11 11:41:42;;;;;;;;;;;;;;;22.23;60.47;100860.47;4981346;28;1900;-70
2023/09/11 11:44:09;;;;;;;;;;;;;;;22.23;60.45;100869.13;4977093;28;1920;-70
2023/09/11 11:46:35;;;;;;;;;;;;;;;22.22;60.72;100853.22;4978254;28;1926;-70
2023/09/11 11:49:01;;;;;;;;;;;;;;;22.23;60.76;100863.38;4975749;28;1610;-70
2023/09/11 11:51:31;;;;;;;;;;;;;;;22.23;60.57;100864.09;4978885;28;1809;-69
2023/09/11 11:53:58;;;;;;;;;;;;;;;22.24;60.44;100859.06;4979761;28;1608;-70
2023/09/11 11:56:25;;;;;;;;;;;;;;;22.22;60.48;100856.88;4981476;28;1688;-70
2023/09/11 11:58:55;;;;;;;;;;;;;;;22.25;60.68;100860.56;4991815;28;2403;-70
2023/09/11 12:01:22;;;;;;;;;;;;;;;22.24;60.80;100856.94;4977350;28;6239;-70
2023/09/11 12:03:48;;;;;;;;;;;;;;;22.25;60.84;100851.91;4978878;28;1560;-70
2023/09/11 12:06:15;;;;;;;;;;;;;;;22.25;60.49;100849.03;4980010;28;2089;-70
2023/09/11 12:08:42;;;;;;;;;;;;;;;22.24;60.61;100851.19;4983355;28;1926;-70
2023/09/11 12:11:08;;;;;;;;;;;;;;;22.25;60.45;100855.53;4977397;28;2024;-70
2023/09/11 12:13:35;;;;;;;;;;;;;;;22.25;60.72;100854.78;4978264;28;1600;-70
2023/09/11 12:16:15;;;;;;;;;;;;;;;22.25;60.87;100855.53;4978297;28;1805;-70
2023/09/11 12:18:41;;;;;;;;;;;;;;;22.25;60.68;100855.53;4979408;28;2013;-70
2023/09/11 12:21:08;;;;;;;;;;;;;;;22.26;60.39;100841.84;4982760;28;1819;-71
2023/09/11 12:23:35;;;;;;;;;;;;;;;22.26;60.68;100850.50;4978736;28;1679;-70
2023/09/11 12:26:02;;;;;;;;;;;;;;;22.26;60.51;100850.50;4978549;28;1644;-70
2023/09/11 12:28:29;;;;;;;;;;;;;;;22.26;60.96;100845.47;4978895;28;1973;-70
2023/09/11 12:30:55;;;;;;;;;;;;;;;22.26;60.58;100851.22;4978561;28;6143;-70
2023/09/11 12:33:22;;;;;;;;;;;;;;;22.28;60.69;100853.47;4977757;28;1615;-70
2023/09/11 12:35:55;;;;;;;;;;;;;;;22.27;60.64;100854.88;4982235;28;1940;-69
2023/09/11 12:38:22;;;;;;;;;;;;;;;22.27;60.70;100849.84;4977461;28;1620;-70
2023/09/11 12:40:48;;;;;;;;;;;;;;;22.28;60.64;100839.78;4978478;28;1608;-69
2023/09/11 12:43:15;;;;;;;;;;;;;;;22.27;60.80;100841.19;4978042;28;1799;-69
2023/09/11 12:45:41;;;;;;;;;;;;;;;22.28;60.33;100836.16;4978325;28;1803;-69
2023/09/11 12:48:07;;;;;;;;;;;;;;;22.28;60.55;100830.38;4978506;28;1914;-69